sensor_id;sensor_type;location;lat;lon;timestamp;P1;durP1;ratioP1;P2;durP2;ratioP2
67997;SDS011;54773;53.388;-1.504;2024-03-07T00:02:32;50.67;;;27.52;;
67997;SDS011;54773;53.388;-1.504;2024-03-07T00:05:18;63.05;;;30.27;;
67997;SDS011;54773;53.388;-1.504;2024-03-07T00:08:03;58.42;;;29.80;;
67997;SDS011;54773;53.388;-1.504;2024-03-07T00:10:48;55.22;;;29.08;;
67997;SDS011;54773;53.388;-1.504;2024-03-07T00:13:32;53.88;;;28.58;;
67997;SDS011;54773;53.388;-1.504;2024-03-07T00:16:17;61.20;;;26.67;;
67997;SDS011;54773;53.388;-1.504;2024-03-07T00:19:01;50.60;;;27.10;;
67997;SDS011;54773;53.388;-1.504;2024-03-07T00:21:45;48.73;;;25.60;;
67997;SDS011;54773;53.388;-1.504;2024-03-07T00:24:29;50.90;;;25.75;;
67997;SDS011;54773;53.388;-1.504;2024-03-07T00:27:15;47.57;;;26.53;;
67997;SDS011;54773;53.388;-1.504;2024-03-07T00:29:59;49.80;;;25.52;;
67997;SDS011;54773;53.388;-1.504;2024-03-07T00:32:44;57.05;;;27.50;;
67997;SDS011;54773;53.388;-1.504;2024-03-07T00:35:28;54.80;;;28.27;;
67997;SDS011;54773;53.388;-1.504;2024-03-07T00:38:13;51.47;;;27.98;;
67997;SDS011;54773;53.388;-1.504;2024-03-07T00:40:57;53.37;;;27.17;;
67997;SDS011;54773;53.388;-1.504;2024-03-07T00:43:41;49.22;;;26.17;;
67997;SDS011;54773;53.388;-1.504;2024-03-07T00:46:25;53.45;;;28.48;;
67997;SDS011;54773;53.388;-1.504;2024-03-07T00:49:09;55.63;;;26.93;;
67997;SDS011;54773;53.388;-1.504;2024-03-07T00:51:53;59.70;;;28.53;;
67997;SDS011;54773;53.388;-1.504;2024-03-07T00:54:37;63.75;;;29.08;;
67997;SDS011;54773;53.388;-1.504;2024-03-07T00:57:21;65.95;;;28.55;;
67997;SDS011;54773;53.388;-1.504;2024-03-07T01:00:05;61.40;;;28.83;;
67997;SDS011;54773;53.388;-1.504;2024-03-07T01:02:54;63.25;;;29.80;;
67997;SDS011;54773;53.388;-1.504;2024-03-07T01:05:40;66.70;;;28.60;;
67997;SDS011;54773;53.388;-1.504;2024-03-07T01:08:24;62.33;;;29.45;;
67997;SDS011;54773;53.388;-1.504;2024-03-07T01:11:08;65.67;;;29.93;;
67997;SDS011;54773;53.388;-1.504;2024-03-07T01:13:55;78.70;;;30.10;;
67997;SDS011;54773;53.388;-1.504;2024-03-07T01:16:40;67.25;;;29.38;;
67997;SDS011;54773;53.388;-1.504;2024-03-07T01:19:24;69.65;;;31.10;;
67997;SDS011;54773;53.388;-1.504;2024-03-07T01:22:09;71.22;;;30.65;;
67997;SDS011;54773;53.388;-1.504;2024-03-07T01:24:53;66.80;;;31.13;;
67997;SDS011;54773;53.388;-1.504;2024-03-07T01:27:37;66.47;;;30.73;;
67997;SDS011;54773;53.388;-1.504;2024-03-07T01:30:21;69.00;;;30.38;;
67997;SDS011;54773;53.388;-1.504;2024-03-07T01:33:07;66.65;;;28.40;;
67997;SDS011;54773;53.388;-1.504;2024-03-07T01:35:50;71.13;;;28.93;;
67997;SDS011;54773;53.388;-1.504;2024-03-07T01:38:35;69.03;;;29.13;;
67997;SDS011;54773;53.388;-1.504;2024-03-07T01:41:19;66.68;;;28.67;;
67997;SDS011;54773;53.388;-1.504;2024-03-07T01:44:03;64.28;;;28.17;;
67997;SDS011;54773;53.388;-1.504;2024-03-07T01:46:48;66.25;;;29.38;;
67997;SDS011;54773;53.388;-1.504;2024-03-07T01:49:34;63.00;;;29.58;;
67997;SDS011;54773;53.388;-1.504;2024-03-07T01:52:18;64.57;;;29.23;;
67997;SDS011;54773;53.388;-1.504;2024-03-07T01:55:02;56.35;;;27.05;;
67997;SDS011;54773;53.388;-1.504;2024-03-07T01:57:47;64.18;;;27.98;;
67997;SDS011;54773;53.388;-1.504;2024-03-07T02:00:31;61.63;;;28.33;;
67997;SDS011;54773;53.388;-1.504;2024-03-07T02:03:15;62.40;;;25.30;;
67997;SDS011;54773;53.388;-1.504;2024-03-07T02:05:59;63.08;;;27.77;;
67997;SDS011;54773;53.388;-1.504;2024-03-07T02:08:44;60.15;;;29.48;;
67997;SDS011;54773;53.388;-1.504;2024-03-07T02:11:28;59.83;;;28.50;;
67997;SDS011;54773;53.388;-1.504;2024-03-07T02:14:12;65.63;;;27.10;;
67997;SDS011;54773;53.388;-1.504;2024-03-07T02:16:56;64.55;;;26.65;;
67997;SDS011;54773;53.388;-1.504;2024-03-07T02:19:40;69.80;;;28.17;;
67997;SDS011;54773;53.388;-1.504;2024-03-07T02:22:24;81.43;;;28.60;;
67997;SDS011;54773;53.388;-1.504;2024-03-07T02:25:10;64.97;;;28.50;;
67997;SDS011;54773;53.388;-1.504;2024-03-07T02:27:54;71.35;;;29.23;;
67997;SDS011;54773;53.388;-1.504;2024-03-07T02:30:38;70.53;;;31.17;;
67997;SDS011;54773;53.388;-1.504;2024-03-07T02:33:21;78.47;;;28.85;;
67997;SDS011;54773;53.388;-1.504;2024-03-07T02:36:07;64.35;;;28.65;;
67997;SDS011;54773;53.388;-1.504;2024-03-07T02:38:51;72.60;;;30.27;;
67997;SDS011;54773;53.388;-1.504;2024-03-07T02:41:35;76.70;;;28.17;;
67997;SDS011;54773;53.388;-1.504;2024-03-07T02:44:19;82.93;;;27.70;;
67997;SDS011;54773;53.388;-1.504;2024-03-07T02:47:04;76.72;;;28.80;;
67997;SDS011;54773;53.388;-1.504;2024-03-07T02:49:48;76.55;;;26.13;;
67997;SDS011;54773;53.388;-1.504;2024-03-07T02:52:32;68.00;;;28.50;;
67997;SDS011;54773;53.388;-1.504;2024-03-07T02:55:16;84.50;;;30.17;;
67997;SDS011;54773;53.388;-1.504;2024-03-07T02:58:02;81.05;;;30.35;;
67997;SDS011;54773;53.388;-1.504;2024-03-07T03:00:47;88.80;;;30.85;;
67997;SDS011;54773;53.388;-1.504;2024-03-07T03:03:32;76.93;;;30.60;;
67997;SDS011;54773;53.388;-1.504;2024-03-07T03:06:16;68.45;;;31.52;;
67997;SDS011;54773;53.388;-1.504;2024-03-07T03:09:00;74.30;;;31.83;;
67997;SDS011;54773;53.388;-1.504;2024-03-07T03:11:44;76.27;;;33.17;;
67997;SDS011;54773;53.388;-1.504;2024-03-07T03:14:28;76.22;;;33.53;;
67997;SDS011;54773;53.388;-1.504;2024-03-07T03:17:12;78.60;;;33.35;;
67997;SDS011;54773;53.388;-1.504;2024-03-07T03:19:57;79.68;;;33.15;;
67997;SDS011;54773;53.388;-1.504;2024-03-07T03:22:41;68.13;;;26.77;;
67997;SDS011;54773;53.388;-1.504;2024-03-07T03:25:27;74.47;;;25.65;;
67997;SDS011;54773;53.388;-1.504;2024-03-07T03:28:11;87.47;;;25.27;;
67997;SDS011;54773;53.388;-1.504;2024-03-07T03:30:56;81.97;;;24.52;;
67997;SDS011;54773;53.388;-1.504;2024-03-07T03:33:40;63.20;;;24.98;;
67997;SDS011;54773;53.388;-1.504;2024-03-07T03:36:24;70.93;;;24.20;;
67997;SDS011;54773;53.388;-1.504;2024-03-07T03:39:08;63.83;;;22.52;;
67997;SDS011;54773;53.388;-1.504;2024-03-07T03:41:55;86.82;;;26.60;;
67997;SDS011;54773;53.388;-1.504;2024-03-07T03:44:39;121.15;;;31.77;;
67997;SDS011;54773;53.388;-1.504;2024-03-07T03:47:24;96.28;;;29.55;;
67997;SDS011;54773;53.388;-1.504;2024-03-07T03:50:09;99.30;;;31.35;;
67997;SDS011;54773;53.388;-1.504;2024-03-07T03:52:54;147.68;;;29.75;;
67997;SDS011;54773;53.388;-1.504;2024-03-07T03:55:39;107.03;;;30.75;;
67997;SDS011;54773;53.388;-1.504;2024-03-07T03:58:23;75.97;;;25.75;;
67997;SDS011;54773;53.388;-1.504;2024-03-07T04:01:07;77.35;;;26.65;;
67997;SDS011;54773;53.388;-1.504;2024-03-07T04:03:56;73.45;;;25.52;;
67997;SDS011;54773;53.388;-1.504;2024-03-07T04:06:40;80.93;;;25.70;;
67997;SDS011;54773;53.388;-1.504;2024-03-07T04:09:24;75.68;;;24.30;;
67997;SDS011;54773;53.388;-1.504;2024-03-07T04:12:08;91.10;;;28.20;;
67997;SDS011;54773;53.388;-1.504;2024-03-07T04:14:56;111.43;;;26.73;;
67997;SDS011;54773;53.388;-1.504;2024-03-07T04:17:40;104.72;;;28.75;;
67997;SDS011;54773;53.388;-1.504;2024-03-07T04:20:24;79.75;;;26.00;;
67997;SDS011;54773;53.388;-1.504;2024-03-07T04:23:08;94.40;;;24.73;;
67997;SDS011;54773;53.388;-1.504;2024-03-07T04:25:52;122.93;;;29.13;;
67997;SDS011;54773;53.388;-1.504;2024-03-07T04:28:36;353.67;;;37.08;;
67997;SDS011;54773;53.388;-1.504;2024-03-07T04:31:20;271.02;;;36.75;;
67997;SDS011;54773;53.388;-1.504;2024-03-07T04:34:04;140.80;;;27.17;;
67997;SDS011;54773;53.388;-1.504;2024-03-07T04:36:48;169.27;;;30.23;;
67997;SDS011;54773;53.388;-1.504;2024-03-07T04:39:32;69.43;;;22.30;;
67997;SDS011;54773;53.388;-1.504;2024-03-07T04:42:16;131.90;;;26.88;;
67997;SDS011;54773;53.388;-1.504;2024-03-07T04:44:59;151.57;;;24.67;;
67997;SDS011;54773;53.388;-1.504;2024-03-07T04:47:46;65.03;;;21.58;;
67997;SDS011;54773;53.388;-1.504;2024-03-07T04:50:30;75.13;;;21.00;;
67997;SDS011;54773;53.388;-1.504;2024-03-07T04:53:15;60.00;;;21.15;;
67997;SDS011;54773;53.388;-1.504;2024-03-07T04:55:58;143.73;;;25.30;;
67997;SDS011;54773;53.388;-1.504;2024-03-07T04:58:42;97.15;;;23.48;;
67997;SDS011;54773;53.388;-1.504;2024-03-07T05:01:26;67.93;;;22.40;;
67997;SDS011;54773;53.388;-1.504;2024-03-07T05:04:11;72.70;;;20.13;;
67997;SDS011;54773;53.388;-1.504;2024-03-07T05:06:56;68.00;;;21.45;;
67997;SDS011;54773;53.388;-1.504;2024-03-07T05:09:41;59.20;;;20.88;;
67997;SDS011;54773;53.388;-1.504;2024-03-07T05:12:25;59.25;;;21.25;;
67997;SDS011;54773;53.388;-1.504;2024-03-07T05:15:09;66.30;;;19.85;;
67997;SDS011;54773;53.388;-1.504;2024-03-07T05:17:53;48.17;;;19.27;;
67997;SDS011;54773;53.388;-1.504;2024-03-07T05:20:39;57.85;;;21.70;;
67997;SDS011;54773;53.388;-1.504;2024-03-07T05:23:23;45.90;;;18.92;;
67997;SDS011;54773;53.388;-1.504;2024-03-07T05:26:07;53.67;;;19.60;;
67997;SDS011;54773;53.388;-1.504;2024-03-07T05:28:52;54.10;;;19.40;;
67997;SDS011;54773;53.388;-1.504;2024-03-07T05:31:38;54.53;;;19.33;;
67997;SDS011;54773;53.388;-1.504;2024-03-07T05:34:29;63.60;;;18.02;;
67997;SDS011;54773;53.388;-1.504;2024-03-07T05:37:13;47.40;;;17.90;;
67997;SDS011;54773;53.388;-1.504;2024-03-07T05:39:57;49.43;;;19.03;;
67997;SDS011;54773;53.388;-1.504;2024-03-07T05:42:41;49.10;;;19.25;;
67997;SDS011;54773;53.388;-1.504;2024-03-07T05:45:25;106.07;;;22.07;;
67997;SDS011;54773;53.388;-1.504;2024-03-07T05:48:13;70.95;;;19.50;;
67997;SDS011;54773;53.388;-1.504;2024-03-07T05:50:59;58.88;;;19.15;;
67997;SDS011;54773;53.388;-1.504;2024-03-07T05:53:43;73.32;;;19.80;;
67997;SDS011;54773;53.388;-1.504;2024-03-07T05:56:27;82.45;;;22.10;;
67997;SDS011;54773;53.388;-1.504;2024-03-07T05:59:11;140.23;;;22.93;;
67997;SDS011;54773;53.388;-1.504;2024-03-07T06:01:55;168.95;;;24.85;;
67997;SDS011;54773;53.388;-1.504;2024-03-07T06:04:39;129.57;;;24.13;;
67997;SDS011;54773;53.388;-1.504;2024-03-07T06:07:23;123.50;;;24.00;;
67997;SDS011;54773;53.388;-1.504;2024-03-07T06:10:07;126.93;;;21.95;;
67997;SDS011;54773;53.388;-1.504;2024-03-07T06:12:54;90.40;;;23.58;;
67997;SDS011;54773;53.388;-1.504;2024-03-07T06:15:38;138.07;;;26.57;;
67997;SDS011;54773;53.388;-1.504;2024-03-07T06:18:23;247.27;;;31.30;;
67997;SDS011;54773;53.388;-1.504;2024-03-07T06:21:06;58.73;;;18.83;;
67997;SDS011;54773;53.388;-1.504;2024-03-07T06:23:51;93.88;;;21.80;;
67997;SDS011;54773;53.388;-1.504;2024-03-07T06:26:42;61.25;;;20.88;;
67997;SDS011;54773;53.388;-1.504;2024-03-07T06:29:47;73.28;;;19.35;;
67997;SDS011;54773;53.388;-1.504;2024-03-07T06:32:34;126.28;;;23.73;;
67997;SDS011;54773;53.388;-1.504;2024-03-07T06:35:18;138.73;;;25.80;;
67997;SDS011;54773;53.388;-1.504;2024-03-07T06:38:05;106.65;;;22.08;;
67997;SDS011;54773;53.388;-1.504;2024-03-07T06:40:50;234.35;;;29.52;;
67997;SDS011;54773;53.388;-1.504;2024-03-07T06:43:34;198.80;;;27.67;;
67997;SDS011;54773;53.388;-1.504;2024-03-07T06:46:17;120.60;;;24.13;;
67997;SDS011;54773;53.388;-1.504;2024-03-07T06:49:03;119.13;;;23.30;;
67997;SDS011;54773;53.388;-1.504;2024-03-07T06:51:53;61.72;;;18.05;;
67997;SDS011;54773;53.388;-1.504;2024-03-07T06:54:38;74.45;;;19.50;;
67997;SDS011;54773;53.388;-1.504;2024-03-07T06:57:22;65.38;;;19.58;;
67997;SDS011;54773;53.388;-1.504;2024-03-07T07:00:06;73.20;;;19.15;;
67997;SDS011;54773;53.388;-1.504;2024-03-07T07:02:54;72.95;;;20.90;;
67997;SDS011;54773;53.388;-1.504;2024-03-07T07:05:41;84.27;;;19.87;;
67997;SDS011;54773;53.388;-1.504;2024-03-07T07:08:25;99.90;;;24.13;;
67997;SDS011;54773;53.388;-1.504;2024-03-07T07:11:09;82.35;;;20.30;;
67997;SDS011;54773;53.388;-1.504;2024-03-07T07:13:55;123.05;;;25.90;;
67997;SDS011;54773;53.388;-1.504;2024-03-07T07:16:39;86.72;;;22.08;;
67997;SDS011;54773;53.388;-1.504;2024-03-07T07:19:29;72.68;;;19.02;;
67997;SDS011;54773;53.388;-1.504;2024-03-07T07:22:13;102.93;;;21.80;;
67997;SDS011;54773;53.388;-1.504;2024-03-07T07:24:57;116.75;;;23.80;;
67997;SDS011;54773;53.388;-1.504;2024-03-07T07:27:50;178.03;;;27.33;;
67997;SDS011;54773;53.388;-1.504;2024-03-07T07:30:35;99.65;;;22.25;;
67997;SDS011;54773;53.388;-1.504;2024-03-07T07:33:19;114.10;;;24.42;;
67997;SDS011;54773;53.388;-1.504;2024-03-07T07:36:03;105.95;;;23.50;;
67997;SDS011;54773;53.388;-1.504;2024-03-07T07:38:48;151.45;;;25.65;;
67997;SDS011;54773;53.388;-1.504;2024-03-07T07:41:31;222.27;;;34.10;;
67997;SDS011;54773;53.388;-1.504;2024-03-07T07:44:15;244.52;;;29.95;;
67997;SDS011;54773;53.388;-1.504;2024-03-07T07:46:59;130.63;;;26.83;;
67997;SDS011;54773;53.388;-1.504;2024-03-07T07:49:43;214.20;;;32.97;;
67997;SDS011;54773;53.388;-1.504;2024-03-07T07:52:27;123.90;;;25.83;;
67997;SDS011;54773;53.388;-1.504;2024-03-07T07:55:11;90.55;;;23.60;;
67997;SDS011;54773;53.388;-1.504;2024-03-07T07:57:59;163.30;;;29.17;;
67997;SDS011;54773;53.388;-1.504;2024-03-07T08:00:43;136.70;;;23.58;;
67997;SDS011;54773;53.388;-1.504;2024-03-07T08:03:27;75.90;;;22.77;;
67997;SDS011;54773;53.388;-1.504;2024-03-07T08:06:11;81.85;;;22.05;;
67997;SDS011;54773;53.388;-1.504;2024-03-07T08:08:55;77.43;;;21.13;;
67997;SDS011;54773;53.388;-1.504;2024-03-07T08:11:39;123.95;;;25.25;;
67997;SDS011;54773;53.388;-1.504;2024-03-07T08:14:25;154.40;;;25.35;;
67997;SDS011;54773;53.388;-1.504;2024-03-07T08:17:12;122.38;;;21.65;;
67997;SDS011;54773;53.388;-1.504;2024-03-07T08:19:56;57.33;;;17.67;;
67997;SDS011;54773;53.388;-1.504;2024-03-07T08:22:41;47.97;;;17.08;;
67997;SDS011;54773;53.388;-1.504;2024-03-07T08:25:26;51.30;;;20.02;;
67997;SDS011;54773;53.388;-1.504;2024-03-07T08:28:12;52.55;;;21.73;;
67997;SDS011;54773;53.388;-1.504;2024-03-07T08:30:56;60.08;;;18.20;;
67997;SDS011;54773;53.388;-1.504;2024-03-07T08:33:40;46.93;;;14.43;;
67997;SDS011;54773;53.388;-1.504;2024-03-07T08:36:24;49.00;;;13.68;;
67997;SDS011;54773;53.388;-1.504;2024-03-07T08:39:07;41.23;;;13.73;;
67997;SDS011;54773;53.388;-1.504;2024-03-07T08:41:54;50.47;;;15.50;;
67997;SDS011;54773;53.388;-1.504;2024-03-07T08:44:38;44.17;;;15.15;;
67997;SDS011;54773;53.388;-1.504;2024-03-07T08:47:23;64.68;;;15.98;;
67997;SDS011;54773;53.388;-1.504;2024-03-07T08:50:07;52.03;;;14.85;;
67997;SDS011;54773;53.388;-1.504;2024-03-07T08:52:52;46.83;;;14.35;;
67997;SDS011;54773;53.388;-1.504;2024-03-07T08:55:36;59.47;;;15.40;;
67997;SDS011;54773;53.388;-1.504;2024-03-07T08:58:20;58.00;;;16.30;;
67997;SDS011;54773;53.388;-1.504;2024-03-07T09:01:04;57.63;;;15.27;;
67997;SDS011;54773;53.388;-1.504;2024-03-07T09:03:48;70.75;;;19.08;;
67997;SDS011;54773;53.388;-1.504;2024-03-07T09:06:32;58.72;;;18.08;;
67997;SDS011;54773;53.388;-1.504;2024-03-07T09:09:16;66.55;;;20.38;;
67997;SDS011;54773;53.388;-1.504;2024-03-07T09:12:01;58.88;;;19.00;;
67997;SDS011;54773;53.388;-1.504;2024-03-07T09:14:46;63.20;;;21.48;;
67997;SDS011;54773;53.388;-1.504;2024-03-07T09:17:30;53.22;;;19.60;;
67997;SDS011;54773;53.388;-1.504;2024-03-07T09:20:15;68.63;;;21.20;;
67997;SDS011;54773;53.388;-1.504;2024-03-07T09:22:59;79.78;;;23.55;;
67997;SDS011;54773;53.388;-1.504;2024-03-07T09:25:44;113.55;;;24.55;;
67997;SDS011;54773;53.388;-1.504;2024-03-07T09:28:29;135.65;;;23.55;;
67997;SDS011;54773;53.388;-1.504;2024-03-07T09:31:16;59.97;;;20.45;;
67997;SDS011;54773;53.388;-1.504;2024-03-07T09:34:00;57.90;;;19.73;;
67997;SDS011;54773;53.388;-1.504;2024-03-07T09:36:44;93.13;;;20.33;;
67997;SDS011;54773;53.388;-1.504;2024-03-07T09:42:18;50.75;;;16.50;;
67997;SDS011;54773;53.388;-1.504;2024-03-07T09:45:04;45.90;;;14.90;;
67997;SDS011;54773;53.388;-1.504;2024-03-07T09:47:49;46.63;;;15.30;;
67997;SDS011;54773;53.388;-1.504;2024-03-07T09:50:35;45.85;;;15.35;;
67997;SDS011;54773;53.388;-1.504;2024-03-07T09:53:19;48.67;;;16.00;;
67997;SDS011;54773;53.388;-1.504;2024-03-07T09:56:04;44.30;;;16.80;;
67997;SDS011;54773;53.388;-1.504;2024-03-07T09:58:49;50.50;;;18.08;;
67997;SDS011;54773;53.388;-1.504;2024-03-07T10:01:34;45.58;;;16.55;;
67997;SDS011;54773;53.388;-1.504;2024-03-07T10:04:21;50.72;;;17.80;;
67997;SDS011;54773;53.388;-1.504;2024-03-07T10:07:12;50.67;;;16.48;;
67997;SDS011;54773;53.388;-1.504;2024-03-07T10:09:57;48.05;;;16.25;;
67997;SDS011;54773;53.388;-1.504;2024-03-07T10:12:43;47.22;;;17.33;;
67997;SDS011;54773;53.388;-1.504;2024-03-07T10:15:28;44.97;;;15.97;;
67997;SDS011;54773;53.388;-1.504;2024-03-07T10:18:13;49.38;;;18.20;;
67997;SDS011;54773;53.388;-1.504;2024-03-07T10:20:58;44.70;;;15.43;;
67997;SDS011;54773;53.388;-1.504;2024-03-07T10:23:43;48.92;;;17.50;;
67997;SDS011;54773;53.388;-1.504;2024-03-07T10:26:27;43.42;;;16.38;;
67997;SDS011;54773;53.388;-1.504;2024-03-07T10:29:11;41.10;;;16.73;;
67997;SDS011;54773;53.388;-1.504;2024-03-07T10:31:55;48.60;;;17.63;;
67997;SDS011;54773;53.388;-1.504;2024-03-07T10:34:39;56.33;;;18.40;;
67997;SDS011;54773;53.388;-1.504;2024-03-07T10:37:29;40.88;;;16.23;;
67997;SDS011;54773;53.388;-1.504;2024-03-07T10:40:14;50.63;;;18.83;;
67997;SDS011;54773;53.388;-1.504;2024-03-07T10:43:01;50.55;;;18.05;;
67997;SDS011;54773;53.388;-1.504;2024-03-07T10:45:53;48.97;;;19.02;;
67997;SDS011;54773;53.388;-1.504;2024-03-07T10:48:39;50.78;;;18.63;;
67997;SDS011;54773;53.388;-1.504;2024-03-07T10:57:38;48.05;;;17.77;;
67997;SDS011;54773;53.388;-1.504;2024-03-07T11:00:25;54.13;;;20.33;;
67997;SDS011;54773;53.388;-1.504;2024-03-07T11:03:19;51.53;;;19.60;;
67997;SDS011;54773;53.388;-1.504;2024-03-07T11:06:04;53.28;;;20.17;;
67997;SDS011;54773;53.388;-1.504;2024-03-07T11:08:50;49.58;;;19.88;;
67997;SDS011;54773;53.388;-1.504;2024-03-07T11:11:37;53.10;;;21.05;;
67997;SDS011;54773;53.388;-1.504;2024-03-07T11:14:23;55.47;;;21.88;;
67997;SDS011;54773;53.388;-1.504;2024-03-07T11:17:09;61.75;;;22.48;;
67997;SDS011;54773;53.388;-1.504;2024-03-07T11:20:17;64.45;;;23.95;;
67997;SDS011;54773;53.388;-1.504;2024-03-07T11:26:12;62.30;;;23.38;;
67997;SDS011;54773;53.388;-1.504;2024-03-07T11:28:57;64.03;;;24.23;;
67997;SDS011;54773;53.388;-1.504;2024-03-07T11:31:42;73.38;;;26.15;;
67997;SDS011;54773;53.388;-1.504;2024-03-07T11:34:29;74.75;;;25.17;;
67997;SDS011;54773;53.388;-1.504;2024-03-07T11:37:17;67.53;;;26.52;;
67997;SDS011;54773;53.388;-1.504;2024-03-07T11:40:01;79.00;;;26.60;;
67997;SDS011;54773;53.388;-1.504;2024-03-07T11:42:52;77.63;;;25.73;;
67997;SDS011;54773;53.388;-1.504;2024-03-07T11:45:37;73.88;;;25.65;;
67997;SDS011;54773;53.388;-1.504;2024-03-07T11:48:28;75.32;;;27.55;;
67997;SDS011;54773;53.388;-1.504;2024-03-07T11:51:17;83.82;;;26.75;;
67997;SDS011;54773;53.388;-1.504;2024-03-07T11:54:01;81.05;;;26.65;;
67997;SDS011;54773;53.388;-1.504;2024-03-07T11:56:45;75.17;;;26.13;;
67997;SDS011;54773;53.388;-1.504;2024-03-07T11:59:29;76.03;;;26.52;;
67997;SDS011;54773;53.388;-1.504;2024-03-07T12:02:21;74.10;;;27.58;;
67997;SDS011;54773;53.388;-1.504;2024-03-07T12:05:06;87.03;;;30.23;;
67997;SDS011;54773;53.388;-1.504;2024-03-07T12:07:50;80.68;;;28.25;;
67997;SDS011;54773;53.388;-1.504;2024-03-07T12:10:34;91.83;;;30.10;;
67997;SDS011;54773;53.388;-1.504;2024-03-07T12:13:19;89.75;;;28.40;;
67997;SDS011;54773;53.388;-1.504;2024-03-07T12:16:04;87.97;;;29.75;;
67997;SDS011;54773;53.388;-1.504;2024-03-07T12:18:51;85.63;;;31.58;;
67997;SDS011;54773;53.388;-1.504;2024-03-07T12:21:38;94.38;;;32.63;;
67997;SDS011;54773;53.388;-1.504;2024-03-07T12:24:22;101.50;;;33.22;;
67997;SDS011;54773;53.388;-1.504;2024-03-07T12:27:08;87.82;;;31.48;;
67997;SDS011;54773;53.388;-1.504;2024-03-07T12:29:56;93.47;;;30.52;;
67997;SDS011;54773;53.388;-1.504;2024-03-07T12:32:43;97.90;;;32.30;;
67997;SDS011;54773;53.388;-1.504;2024-03-07T12:35:31;93.72;;;32.35;;
67997;SDS011;54773;53.388;-1.504;2024-03-07T12:38:15;87.47;;;31.75;;
67997;SDS011;54773;53.388;-1.504;2024-03-07T12:41:10;77.63;;;30.30;;
67997;SDS011;54773;53.388;-1.504;2024-03-07T12:43:58;80.28;;;29.08;;
67997;SDS011;54773;53.388;-1.504;2024-03-07T12:46:42;80.03;;;31.17;;
67997;SDS011;54773;53.388;-1.504;2024-03-07T12:49:26;81.10;;;29.77;;
67997;SDS011;54773;53.388;-1.504;2024-03-07T12:52:11;75.32;;;29.05;;
67997;SDS011;54773;53.388;-1.504;2024-03-07T12:54:58;75.97;;;29.30;;
67997;SDS011;54773;53.388;-1.504;2024-03-07T12:57:42;71.37;;;27.13;;
67997;SDS011;54773;53.388;-1.504;2024-03-07T13:00:28;69.70;;;26.98;;
67997;SDS011;54773;53.388;-1.504;2024-03-07T13:03:13;77.70;;;28.73;;
67997;SDS011;54773;53.388;-1.504;2024-03-07T13:06:00;79.18;;;30.48;;
67997;SDS011;54773;53.388;-1.504;2024-03-07T13:08:44;70.00;;;27.77;;
67997;SDS011;54773;53.388;-1.504;2024-03-07T13:11:28;67.95;;;28.73;;
67997;SDS011;54773;53.388;-1.504;2024-03-07T13:14:15;62.35;;;26.77;;
67997;SDS011;54773;53.388;-1.504;2024-03-07T13:19:51;54.33;;;24.58;;
67997;SDS011;54773;53.388;-1.504;2024-03-07T13:22:43;59.35;;;25.48;;
67997;SDS011;54773;53.388;-1.504;2024-03-07T13:25:30;58.72;;;23.88;;
67997;SDS011;54773;53.388;-1.504;2024-03-07T13:28:16;52.35;;;23.25;;
67997;SDS011;54773;53.388;-1.504;2024-03-07T13:31:01;54.45;;;24.48;;
67997;SDS011;54773;53.388;-1.504;2024-03-07T13:33:47;49.40;;;21.92;;
67997;SDS011;54773;53.388;-1.504;2024-03-07T13:36:34;47.22;;;21.15;;
67997;SDS011;54773;53.388;-1.504;2024-03-07T13:39:21;48.58;;;20.52;;
67997;SDS011;54773;53.388;-1.504;2024-03-07T13:42:05;46.00;;;20.37;;
67997;SDS011;54773;53.388;-1.504;2024-03-07T13:44:49;43.53;;;18.90;;
67997;SDS011;54773;53.388;-1.504;2024-03-07T13:47:34;42.80;;;19.30;;
67997;SDS011;54773;53.388;-1.504;2024-03-07T13:50:18;45.90;;;20.07;;
67997;SDS011;54773;53.388;-1.504;2024-03-07T13:53:05;39.80;;;18.35;;
67997;SDS011;54773;53.388;-1.504;2024-03-07T14:11:16;42.47;;;17.15;;
67997;SDS011;54773;53.388;-1.504;2024-03-07T14:18:00;40.33;;;17.55;;
67997;SDS011;54773;53.388;-1.504;2024-03-07T14:27:26;39.90;;;18.88;;
67997;SDS011;54773;53.388;-1.504;2024-03-07T14:33:19;37.05;;;17.00;;
67997;SDS011;54773;53.388;-1.504;2024-03-07T14:36:07;39.50;;;18.27;;
67997;SDS011;54773;53.388;-1.504;2024-03-07T14:38:54;39.85;;;17.35;;
67997;SDS011;54773;53.388;-1.504;2024-03-07T14:41:58;39.30;;;17.88;;
67997;SDS011;54773;53.388;-1.504;2024-03-07T14:44:44;42.20;;;18.25;;
67997;SDS011;54773;53.388;-1.504;2024-03-07T14:47:31;37.13;;;17.83;;
67997;SDS011;54773;53.388;-1.504;2024-03-07T14:50:15;40.17;;;19.00;;
67997;SDS011;54773;53.388;-1.504;2024-03-07T14:53:00;37.65;;;19.67;;
67997;SDS011;54773;53.388;-1.504;2024-03-07T14:55:44;43.10;;;19.88;;
67997;SDS011;54773;53.388;-1.504;2024-03-07T14:58:28;42.35;;;19.92;;
67997;SDS011;54773;53.388;-1.504;2024-03-07T15:01:12;45.55;;;21.17;;
67997;SDS011;54773;53.388;-1.504;2024-03-07T15:03:57;47.30;;;21.10;;
67997;SDS011;54773;53.388;-1.504;2024-03-07T15:06:42;53.20;;;21.95;;
67997;SDS011;54773;53.388;-1.504;2024-03-07T15:09:27;46.28;;;21.98;;
67997;SDS011;54773;53.388;-1.504;2024-03-07T15:12:13;49.47;;;22.13;;
67997;SDS011;54773;53.388;-1.504;2024-03-07T15:14:57;46.05;;;21.63;;
67997;SDS011;54773;53.388;-1.504;2024-03-07T15:17:41;47.10;;;22.95;;
67997;SDS011;54773;53.388;-1.504;2024-03-07T15:20:26;51.08;;;24.55;;
67997;SDS011;54773;53.388;-1.504;2024-03-07T15:23:13;48.80;;;22.88;;
67997;SDS011;54773;53.388;-1.504;2024-03-07T15:25:57;49.80;;;23.70;;
67997;SDS011;54773;53.388;-1.504;2024-03-07T15:28:42;44.60;;;22.13;;
67997;SDS011;54773;53.388;-1.504;2024-03-07T15:31:27;47.17;;;23.30;;
67997;SDS011;54773;53.388;-1.504;2024-03-07T15:34:11;51.50;;;24.40;;
67997;SDS011;54773;53.388;-1.504;2024-03-07T15:37:00;49.15;;;23.60;;
67997;SDS011;54773;53.388;-1.504;2024-03-07T15:39:47;53.88;;;24.95;;
67997;SDS011;54773;53.388;-1.504;2024-03-07T15:42:31;48.67;;;23.20;;
67997;SDS011;54773;53.388;-1.504;2024-03-07T15:45:16;46.13;;;22.85;;
67997;SDS011;54773;53.388;-1.504;2024-03-07T15:48:01;46.03;;;23.15;;
67997;SDS011;54773;53.388;-1.504;2024-03-07T15:50:52;46.90;;;24.23;;
67997;SDS011;54773;53.388;-1.504;2024-03-07T15:53:36;52.63;;;26.70;;
67997;SDS011;54773;53.388;-1.504;2024-03-07T15:56:20;50.40;;;24.70;;
67997;SDS011;54773;53.388;-1.504;2024-03-07T15:59:04;51.20;;;26.02;;
67997;SDS011;54773;53.388;-1.504;2024-03-07T16:01:48;48.63;;;25.63;;
67997;SDS011;54773;53.388;-1.504;2024-03-07T16:04:33;53.03;;;25.02;;
67997;SDS011;54773;53.388;-1.504;2024-03-07T16:07:17;48.38;;;25.08;;
67997;SDS011;54773;53.388;-1.504;2024-03-07T16:10:02;59.72;;;25.17;;
67997;SDS011;54773;53.388;-1.504;2024-03-07T16:12:47;58.78;;;25.20;;
67997;SDS011;54773;53.388;-1.504;2024-03-07T16:15:31;56.58;;;26.02;;
67997;SDS011;54773;53.388;-1.504;2024-03-07T16:18:15;49.30;;;24.67;;
67997;SDS011;54773;53.388;-1.504;2024-03-07T16:20:59;53.33;;;24.63;;
67997;SDS011;54773;53.388;-1.504;2024-03-07T16:23:43;46.00;;;23.00;;
67997;SDS011;54773;53.388;-1.504;2024-03-07T16:26:33;47.33;;;25.73;;
67997;SDS011;54773;53.388;-1.504;2024-03-07T16:29:17;50.58;;;24.40;;
67997;SDS011;54773;53.388;-1.504;2024-03-07T16:32:01;47.30;;;26.75;;
67997;SDS011;54773;53.388;-1.504;2024-03-07T16:34:48;46.60;;;22.77;;